createdAt,value
2022-09-21T00:00:04.103Z,1022.62
2022-09-21T00:01:05.261Z,1022.65
2022-09-21T00:02:01.209Z,1022.64
2022-09-21T00:03:01.303Z,1022.67
2022-09-21T00:04:01.058Z,1022.64
2022-09-21T00:05:00.638Z,1022.63
2022-09-21T00:06:05.553Z,1022.67
2022-09-21T00:07:01.612Z,1022.67
2022-09-21T00:08:01.509Z,1022.67
2022-09-21T00:09:01.233Z,1022.71
2022-09-21T00:10:01.095Z,1022.71
2022-09-21T00:11:08.446Z,1022.73
2022-09-21T00:12:01.371Z,1022.79
2022-09-21T00:13:02.040Z,1022.76
2022-09-21T00:14:01.328Z,1022.76
2022-09-21T00:15:01.138Z,1022.78
2022-09-21T00:16:11.076Z,1022.79
2022-09-21T00:17:01.531Z,1022.76
2022-09-21T00:18:01.852Z,1022.78
2022-09-21T00:19:01.149Z,1022.74
2022-09-21T00:20:00.853Z,1022.78
2022-09-21T00:21:13.360Z,1022.79
2022-09-21T00:22:01.876Z,1022.79
2022-09-21T00:23:02.434Z,1022.77
2022-09-21T00:24:01.333Z,1022.79
2022-09-21T00:25:02.318Z,1022.73
2022-09-21T00:26:15.317Z,1022.76
2022-09-21T00:27:01.948Z,1022.71
2022-09-21T00:28:01.188Z,1022.76
2022-09-21T00:29:01.205Z,1022.73
2022-09-21T00:30:01.576Z,1022.78
2022-09-21T00:31:01.274Z,1022.77
2022-09-21T00:32:01.197Z,1022.76
2022-09-21T00:33:01.147Z,1022.77
2022-09-21T00:34:01.145Z,1022.82
2022-09-21T00:35:01.160Z,1022.83
2022-09-21T00:36:01.069Z,1022.85
2022-09-21T00:37:01.064Z,1022.9
2022-09-21T00:38:01.242Z,1022.87
2022-09-21T00:39:01.507Z,1022.86
2022-09-21T00:40:01.283Z,1022.89
2022-09-21T00:41:01.083Z,1022.87
2022-09-21T00:42:01.114Z,1022.88
2022-09-21T00:43:01.131Z,1022.89
2022-09-21T00:44:01.110Z,1022.87
2022-09-21T00:45:01.115Z,1022.87
2022-09-21T00:46:01.206Z,1022.89
2022-09-21T00:47:01.245Z,1022.91
2022-09-21T00:48:01.538Z,1022.83
2022-09-21T00:49:01.062Z,1022.88
2022-09-21T00:50:01.785Z,1022.89
2022-09-21T00:51:00.761Z,1022.86
2022-09-21T00:52:00.345Z,1022.89
2022-09-21T00:53:00.048Z,1022.82
2022-09-21T00:53:59.863Z,1022.89
2022-09-21T00:55:01.753Z,1022.88
2022-09-21T00:56:01.787Z,1022.94
2022-09-21T00:57:02.111Z,1022.88
2022-09-21T00:58:01.109Z,1022.89
2022-09-21T00:59:01.108Z,1022.88
2022-09-21T01:00:01.131Z,1022.94
2022-09-21T01:01:01.141Z,1022.93
2022-09-21T01:02:01.212Z,1022.91
2022-09-21T01:03:01.130Z,1022.89
2022-09-21T01:04:01.029Z,1022.87
2022-09-21T01:05:01.141Z,1022.87
2022-09-21T01:06:01.073Z,1022.91
2022-09-21T01:07:01.869Z,1022.87
2022-09-21T01:08:01.453Z,1022.85
2022-09-21T01:09:01.085Z,1022.87
2022-09-21T01:10:01.081Z,1022.87
2022-09-21T01:11:01.472Z,1022.93
2022-09-21T01:12:01.127Z,1022.94
2022-09-21T01:13:01.150Z,1022.92
2022-09-21T01:14:01.114Z,1022.89
2022-09-21T01:15:01.120Z,1022.89
2022-09-21T01:16:01.156Z,1022.93
2022-09-21T01:17:04.709Z,1022.97
2022-09-21T01:18:02.215Z,1022.97
2022-09-21T01:19:01.440Z,1022.99
2022-09-21T01:20:01.256Z,1022.95
2022-09-21T01:21:02.090Z,1022.95
2022-09-21T01:22:02.088Z,1022.94
2022-09-21T01:23:01.746Z,1022.96
2022-09-21T01:24:01.307Z,1022.97
2022-09-21T01:25:01.306Z,1022.98
2022-09-21T01:26:01.329Z,1022.99
2022-09-21T01:27:02.215Z,1022.96
2022-09-21T01:28:02.141Z,1022.97
2022-09-21T01:29:01.130Z,1023
2022-09-21T01:29:59.763Z,1022.99
2022-09-21T01:31:01.414Z,1022.97
2022-09-21T01:32:02.472Z,1022.98
2022-09-21T01:33:02.357Z,1022.98
2022-09-21T01:34:04.665Z,1023.01
2022-09-21T01:35:02.343Z,1023.01
2022-09-21T01:36:01.587Z,1023.03
2022-09-21T01:37:01.860Z,1023.02
2022-09-21T01:38:01.067Z,1023
2022-09-21T01:39:01.069Z,1022.99
2022-09-21T01:40:01.096Z,1023.01
2022-09-21T01:41:01.461Z,1023.08
2022-09-21T01:42:01.054Z,1023.02
2022-09-21T01:43:01.092Z,1023.02
2022-09-21T01:44:01.062Z,1023
2022-09-21T01:45:01.377Z,1023.06
2022-09-21T01:46:01.345Z,1023.02
2022-09-21T01:47:01.108Z,1023.01
2022-09-21T01:48:01.118Z,1023.03
2022-09-21T01:49:01.424Z,1023.05
2022-09-21T01:50:01.130Z,1023.11
2022-09-21T01:51:01.155Z,1023.08
2022-09-21T01:52:03.866Z,1023.15
2022-09-21T01:53:01.402Z,1023.08
2022-09-21T01:54:01.069Z,1023.09
2022-09-21T01:55:01.067Z,1023.14
2022-09-21T01:56:01.082Z,1023.14
2022-09-21T01:57:06.897Z,1023.11
2022-09-21T01:58:01.781Z,1023.17
2022-09-21T01:59:01.367Z,1023.19
2022-09-21T02:00:02.023Z,1023.2
2022-09-21T02:01:02.120Z,1023.2
2022-09-21T02:02:09.860Z,1023.2
2022-09-21T02:03:01.119Z,1023.23
2022-09-21T02:04:00.837Z,1023.22
2022-09-21T02:05:00.667Z,1023.23
2022-09-21T02:06:00.331Z,1023.24
2022-09-21T02:07:11.742Z,1023.2
2022-09-21T02:08:01.315Z,1023.23
2022-09-21T02:09:02.974Z,1023.19
2022-09-21T02:10:02.420Z,1023.23
2022-09-21T02:11:00.775Z,1023.25
2022-09-21T02:12:18.175Z,1023.23
2022-09-21T02:13:01.547Z,1023.23
2022-09-21T02:14:01.673Z,1023.24
2022-09-21T02:15:01.264Z,1023.23
2022-09-21T02:16:01.371Z,1023.22
2022-09-21T02:17:16.804Z,1023.2
2022-09-21T02:18:01.144Z,1023.2
2022-09-21T02:19:01.118Z,1023.23
2022-09-21T02:20:01.127Z,1023.21
2022-09-21T02:21:05.075Z,1023.21
2022-09-21T02:22:01.137Z,1023.22
2022-09-21T02:23:01.154Z,1023.22
2022-09-21T02:24:01.162Z,1023.19
2022-09-21T02:25:01.447Z,1023.19
2022-09-21T02:26:01.070Z,1023.18
2022-09-21T02:27:01.087Z,1023.22
2022-09-21T02:28:01.786Z,1023.22
2022-09-21T02:29:00.797Z,1023.22
2022-09-21T02:30:00.505Z,1023.2
2022-09-21T02:31:00.253Z,1023.21
2022-09-21T02:31:59.974Z,1023.21
2022-09-21T02:32:59.666Z,1023.21
2022-09-21T02:34:01.908Z,1023.22
2022-09-21T02:35:01.793Z,1023.22
2022-09-21T02:36:01.133Z,1023.19
2022-09-21T02:37:01.131Z,1023.21
2022-09-21T02:38:01.130Z,1023.18
2022-09-21T02:39:00.685Z,1023.16
2022-09-21T02:40:00.490Z,1023.14
2022-09-21T02:41:00.392Z,1023.2
2022-09-21T02:42:00.080Z,1023.19
2022-09-21T02:42:59.797Z,1023.2
2022-09-21T02:44:01.786Z,1023.21
2022-09-21T02:45:01.795Z,1023.2
2022-09-21T02:46:01.112Z,1023.19
2022-09-21T02:47:01.101Z,1023.19
2022-09-21T02:48:01.772Z,1023.24
2022-09-21T02:49:01.174Z,1023.23
2022-09-21T02:50:01.826Z,1023.22
2022-09-21T02:51:02.149Z,1023.23
2022-09-21T02:52:01.934Z,1023.3
2022-09-21T02:53:01.460Z,1023.25
2022-09-21T02:54:01.137Z,1023.28
2022-09-21T02:55:01.164Z,1023.27
2022-09-21T02:56:01.062Z,1023.27
2022-09-21T02:57:01.058Z,1023.3
2022-09-21T02:58:01.108Z,1023.28
2022-09-21T02:59:01.075Z,1023.28
2022-09-21T03:00:01.107Z,1023.28
2022-09-21T03:01:01.112Z,1023.29
2022-09-21T03:02:01.132Z,1023.29
2022-09-21T03:03:01.095Z,1023.28
2022-09-21T03:04:01.039Z,1023.29
2022-09-21T03:05:01.035Z,1023.28
2022-09-21T03:06:01.069Z,1023.32
2022-09-21T03:07:01.059Z,1023.33
2022-09-21T03:08:03.775Z,1023.35
2022-09-21T03:09:01.036Z,1023.34
2022-09-21T03:10:01.173Z,1023.36
2022-09-21T03:11:01.163Z,1023.36
2022-09-21T03:12:01.066Z,1023.35
2022-09-21T03:13:01.073Z,1023.42
2022-09-21T03:14:01.469Z,1023.41
2022-09-21T03:15:01.188Z,1023.38
2022-09-21T03:16:01.946Z,1023.4
2022-09-21T03:17:01.159Z,1023.41
2022-09-21T03:18:01.119Z,1023.4
2022-09-21T03:19:01.116Z,1023.42
2022-09-21T03:20:01.844Z,1023.4
2022-09-21T03:21:01.119Z,1023.42
2022-09-21T03:22:01.813Z,1023.41
2022-09-21T03:23:01.421Z,1023.4
2022-09-21T03:24:01.017Z,1023.39
2022-09-21T03:25:01.147Z,1023.37
2022-09-21T03:26:01.174Z,1023.4
2022-09-21T03:27:01.817Z,1023.39
2022-09-21T03:28:01.864Z,1023.4
2022-09-21T03:29:02.478Z,1023.42
2022-09-21T03:30:02.319Z,1023.45
2022-09-21T03:31:01.146Z,1023.44
2022-09-21T03:32:01.364Z,1023.45
2022-09-21T03:33:01.899Z,1023.42
2022-09-21T03:34:01.088Z,1023.4
2022-09-21T03:35:01.095Z,1023.41
2022-09-21T03:36:01.122Z,1023.38
2022-09-21T03:37:01.110Z,1023.4
2022-09-21T03:38:04.744Z,1023.45
2022-09-21T03:39:01.141Z,1023.51
2022-09-21T03:40:01.505Z,1023.46
2022-09-21T03:41:01.449Z,1023.56
2022-09-21T03:42:01.589Z,1023.51
2022-09-21T03:43:07.726Z,1023.58
2022-09-21T03:44:01.739Z,1023.5
2022-09-21T03:45:01.743Z,1023.54
2022-09-21T03:46:01.145Z,1023.51
2022-09-21T03:47:01.093Z,1023.5
2022-09-21T03:48:10.683Z,1023.57
2022-09-21T03:49:01.479Z,1023.59
2022-09-21T03:50:01.419Z,1023.56
2022-09-21T03:51:04.101Z,1023.53
2022-09-21T03:52:01.127Z,1023.58
2022-09-21T03:53:10.796Z,1023.6
2022-09-21T03:54:01.493Z,1023.63
2022-09-21T03:55:01.126Z,1023.59
2022-09-21T03:56:01.856Z,1023.64
2022-09-21T03:57:01.538Z,1023.63
2022-09-21T03:58:14.357Z,1023.61
2022-09-21T03:59:01.172Z,1023.59
2022-09-21T04:00:01.081Z,1023.61
2022-09-21T04:01:01.881Z,1023.65
2022-09-21T04:02:03.782Z,1023.67
2022-09-21T04:03:17.412Z,1023.65
2022-09-21T04:04:01.885Z,1023.62
2022-09-21T04:05:01.106Z,1023.6
2022-09-21T04:06:01.097Z,1023.64
2022-09-21T04:07:04.196Z,1023.62
2022-09-21T04:08:01.710Z,1023.61
2022-09-21T04:09:01.117Z,1023.58
2022-09-21T04:10:01.180Z,1023.59
2022-09-21T04:11:01.188Z,1023.6
2022-09-21T04:12:01.524Z,1023.57
2022-09-21T04:13:01.156Z,1023.6
2022-09-21T04:14:01.150Z,1023.6
2022-09-21T04:15:01.174Z,1023.65
2022-09-21T04:16:01.870Z,1023.65
2022-09-21T04:17:01.369Z,1023.69
2022-09-21T04:18:02.085Z,1023.71
2022-09-21T04:19:01.191Z,1023.73
2022-09-21T04:20:00.883Z,1023.72
2022-09-21T04:21:01.419Z,1023.71
2022-09-21T04:22:01.351Z,1023.68
2022-09-21T04:23:02.110Z,1023.71
2022-09-21T04:24:02.147Z,1023.75
2022-09-21T04:25:01.390Z,1023.74
2022-09-21T04:26:01.136Z,1023.77
2022-09-21T04:27:03.085Z,1023.8
2022-09-21T04:28:02.049Z,1023.79
2022-09-21T04:29:01.150Z,1023.79
2022-09-21T04:30:01.572Z,1023.77
2022-09-21T04:31:01.771Z,1023.81
2022-09-21T04:32:01.738Z,1023.8
2022-09-21T04:33:01.177Z,1023.76
2022-09-21T04:34:01.122Z,1023.82
2022-09-21T04:35:01.205Z,1023.84
2022-09-21T04:36:01.191Z,1023.88
2022-09-21T04:37:01.196Z,1023.8
2022-09-21T04:38:01.199Z,1023.82
2022-09-21T04:39:01.858Z,1023.84
2022-09-21T04:40:01.005Z,1023.78
2022-09-21T04:41:03.860Z,1023.76
2022-09-21T04:42:01.218Z,1023.82
2022-09-21T04:43:01.141Z,1023.81
2022-09-21T04:44:01.141Z,1023.83
2022-09-21T04:45:01.858Z,1023.88
2022-09-21T04:46:02.533Z,1023.93
2022-09-21T04:47:01.847Z,1023.88
2022-09-21T04:48:01.477Z,1023.91
2022-09-21T04:49:01.098Z,1023.91
2022-09-21T04:50:01.094Z,1023.94
2022-09-21T04:51:01.105Z,1023.91
2022-09-21T04:52:01.100Z,1023.92
2022-09-21T04:53:01.406Z,1023.9
2022-09-21T04:54:01.411Z,1023.87
2022-09-21T04:55:02.727Z,1023.89
2022-09-21T04:56:01.421Z,1023.9
2022-09-21T04:57:01.401Z,1023.91
2022-09-21T04:58:01.136Z,1023.86
2022-09-21T04:59:02.147Z,1023.9
2022-09-21T05:00:00.837Z,1023.93
2022-09-21T05:01:00.631Z,1023.97
2022-09-21T05:02:00.338Z,1023.94
2022-09-21T05:03:00.031Z,1023.94
2022-09-21T05:03:59.828Z,1023.91
2022-09-21T05:05:01.700Z,1023.95
2022-09-21T05:06:01.423Z,1023.93
2022-09-21T05:07:02.084Z,1023.9
2022-09-21T05:08:01.488Z,1023.88
2022-09-21T05:09:00.874Z,1023.88
2022-09-21T05:10:01.091Z,1023.88
2022-09-21T05:11:01.057Z,1023.85
2022-09-21T05:12:01.115Z,1023.9
2022-09-21T05:13:01.123Z,1023.91
2022-09-21T05:14:01.005Z,1023.94
2022-09-21T05:15:01.453Z,1023.97
2022-09-21T05:16:01.210Z,1023.95
2022-09-21T05:17:01.170Z,1023.94
2022-09-21T05:18:01.141Z,1023.94
2022-09-21T05:19:01.169Z,1023.93
2022-09-21T05:20:00.880Z,1023.96
2022-09-21T05:21:01.307Z,1023.98
2022-09-21T05:22:01.988Z,1023.97
2022-09-21T05:23:02.614Z,1023.97
2022-09-21T05:24:00.831Z,1023.96
2022-09-21T05:25:00.376Z,1024.01
2022-09-21T05:25:59.955Z,1024.02
2022-09-21T05:26:59.665Z,1024.05
2022-09-21T05:28:01.783Z,1024.02
2022-09-21T05:29:04.410Z,1024.07
2022-09-21T05:30:01.262Z,1024.08
2022-09-21T05:31:17.071Z,1024.1
2022-09-21T05:32:01.154Z,1024.13
2022-09-21T05:33:01.757Z,1024.12
2022-09-21T05:37:01.059Z,1024.18
2022-09-21T05:38:00.548Z,1024.19
2022-09-21T05:39:09.074Z,1024.15
2022-09-21T05:40:02.260Z,1024.14
2022-09-21T05:41:01.088Z,1024.16
2022-09-21T05:42:01.086Z,1024.22
2022-09-21T05:43:01.097Z,1024.18
2022-09-21T05:44:10.469Z,1024.25
2022-09-21T05:45:01.102Z,1024.26
2022-09-21T05:46:01.148Z,1024.24
2022-09-21T05:47:01.244Z,1024.27
2022-09-21T05:48:01.129Z,1024.28
2022-09-21T05:49:12.899Z,1024.28
2022-09-21T05:50:02.296Z,1024.25
2022-09-21T05:51:01.330Z,1024.28
2022-09-21T05:52:01.075Z,1024.25
2022-09-21T05:53:01.064Z,1024.26
2022-09-21T05:54:16.300Z,1024.28
2022-09-21T05:55:01.462Z,1024.26
2022-09-21T05:56:02.105Z,1024.29
2022-09-21T05:57:02.112Z,1024.29
2022-09-21T05:58:01.863Z,1024.32
2022-09-21T05:59:00.790Z,1024.33
2022-09-21T06:00:00.362Z,1024.35
2022-09-21T06:01:00.084Z,1024.33
2022-09-21T06:01:59.767Z,1024.3
2022-09-21T06:03:01.415Z,1024.27
2022-09-21T06:04:01.517Z,1024.29
2022-09-21T06:05:02.203Z,1024.32
2022-09-21T06:06:01.822Z,1024.3
2022-09-21T06:07:01.072Z,1024.32
2022-09-21T06:08:01.055Z,1024.34
2022-09-21T06:09:01.056Z,1024.36
2022-09-21T06:10:00.849Z,1024.36
2022-09-21T06:11:00.481Z,1024.3
2022-09-21T06:12:00.325Z,1024.31
2022-09-21T06:12:59.963Z,1024.33
2022-09-21T06:13:59.674Z,1024.29
2022-09-21T06:15:01.786Z,1024.26
2022-09-21T06:16:01.102Z,1024.29
2022-09-21T06:17:01.155Z,1024.29
2022-09-21T06:18:01.824Z,1024.32
2022-09-21T06:19:01.143Z,1024.33
2022-09-21T06:20:01.311Z,1024.31
2022-09-21T06:21:01.203Z,1024.3
2022-09-21T06:22:01.238Z,1024.3
2022-09-21T06:23:01.878Z,1024.32
2022-09-21T06:24:01.227Z,1024.34
2022-09-21T06:25:00.550Z,1024.35
2022-09-21T06:26:00.282Z,1024.33
2022-09-21T06:26:59.877Z,1024.31
2022-09-21T06:27:59.538Z,1024.37
2022-09-21T06:29:01.080Z,1024.33
2022-09-21T06:30:01.120Z,1024.36
2022-09-21T06:31:01.922Z,1024.33
2022-09-21T06:32:01.110Z,1024.38
2022-09-21T06:33:01.123Z,1024.36
2022-09-21T06:34:01.114Z,1024.39
2022-09-21T06:35:01.278Z,1024.36
2022-09-21T06:36:01.135Z,1024.37
2022-09-21T06:37:01.044Z,1024.38
2022-09-21T06:38:01.060Z,1024.36
2022-09-21T06:39:01.072Z,1024.41
2022-09-21T06:40:01.563Z,1024.4
2022-09-21T06:41:01.071Z,1024.41
2022-09-21T06:42:01.098Z,1024.43
2022-09-21T06:43:01.282Z,1024.41
2022-09-21T06:44:01.083Z,1024.4
2022-09-21T06:45:01.474Z,1024.4
2022-09-21T06:46:01.261Z,1024.41
2022-09-21T06:47:01.116Z,1024.4
2022-09-21T06:48:01.135Z,1024.37
2022-09-21T06:49:01.134Z,1024.39
2022-09-21T06:50:01.133Z,1024.39
2022-09-21T06:51:01.160Z,1024.43
2022-09-21T06:52:01.157Z,1024.42
2022-09-21T06:53:01.297Z,1024.43
2022-09-21T06:54:01.304Z,1024.38
2022-09-21T06:55:02.247Z,1024.41
2022-09-21T06:56:01.965Z,1024.45
2022-09-21T06:57:01.071Z,1024.49
2022-09-21T06:58:02.713Z,1024.46
2022-09-21T06:59:00.842Z,1024.5
2022-09-21T07:00:01.091Z,1024.48
2022-09-21T07:01:01.341Z,1024.48
2022-09-21T07:02:02.684Z,1024.55
2022-09-21T07:03:02.120Z,1024.5
2022-09-21T07:04:02.157Z,1024.5
2022-09-21T07:05:01.198Z,1024.54
2022-09-21T07:06:01.125Z,1024.55
2022-09-21T07:07:03.633Z,1024.58
2022-09-21T07:08:01.334Z,1024.57
2022-09-21T07:10:13.275Z,1024.61
2022-09-21T07:11:01.159Z,1024.63
2022-09-21T07:12:01.055Z,1024.62
2022-09-21T07:13:01.078Z,1024.69
2022-09-21T07:14:01.221Z,1024.64
2022-09-21T07:15:01.090Z,1024.66
2022-09-21T07:16:01.060Z,1024.69
2022-09-21T07:17:01.078Z,1024.66
2022-09-21T07:18:08.200Z,1024.67
2022-09-21T07:19:10.791Z,1024.72
2022-09-21T07:20:01.118Z,1024.69
2022-09-21T07:21:01.146Z,1024.68
2022-09-21T07:22:01.148Z,1024.69
2022-09-21T07:23:01.142Z,1024.74
2022-09-21T07:24:01.156Z,1024.72
2022-09-21T07:25:04.313Z,1024.72
2022-09-21T07:26:01.718Z,1024.72
2022-09-21T07:27:01.415Z,1024.73
2022-09-21T07:28:01.015Z,1024.73
2022-09-21T07:29:00.955Z,1024.75
2022-09-21T07:30:07.125Z,1024.75
2022-09-21T07:31:01.079Z,1024.77
2022-09-21T07:32:01.069Z,1024.76
2022-09-21T07:33:01.062Z,1024.79
2022-09-21T07:34:01.062Z,1024.73
2022-09-21T07:35:09.177Z,1024.72
2022-09-21T07:36:01.230Z,1024.72
2022-09-21T07:37:01.119Z,1024.71
2022-09-21T07:38:01.373Z,1024.68
2022-09-21T07:39:00.868Z,1024.74
2022-09-21T07:40:11.958Z,1024.73
2022-09-21T07:41:01.038Z,1024.75
2022-09-21T07:42:01.057Z,1024.78
2022-09-21T07:43:01.070Z,1024.84
2022-09-21T07:44:01.060Z,1024.8
2022-09-21T07:45:14.725Z,1024.77
2022-09-21T07:46:01.944Z,1024.77
2022-09-21T07:47:01.758Z,1024.72
2022-09-21T07:48:01.088Z,1024.77
2022-09-21T07:49:01.098Z,1024.74
2022-09-21T07:50:16.133Z,1024.75
2022-09-21T07:51:01.425Z,1024.77
2022-09-21T07:52:05.068Z,1024.77
2022-09-21T07:53:03.009Z,1024.76
2022-09-21T07:54:01.183Z,1024.78
2022-09-21T07:55:01.032Z,1024.75
2022-09-21T07:56:01.060Z,1024.81
2022-09-21T07:57:01.129Z,1024.78
2022-09-21T07:58:01.173Z,1024.79
2022-09-21T07:59:01.083Z,1024.8
2022-09-21T08:00:01.176Z,1024.75
2022-09-21T08:01:01.945Z,1024.81
2022-09-21T08:02:01.196Z,1024.8
2022-09-21T08:03:01.083Z,1024.77
2022-09-21T08:04:01.084Z,1024.78
2022-09-21T08:05:01.099Z,1024.78
2022-09-21T08:06:01.107Z,1024.79
2022-09-21T08:07:01.204Z,1024.8
2022-09-21T08:08:01.215Z,1024.76
2022-09-21T08:09:01.148Z,1024.75
2022-09-21T08:10:01.132Z,1024.76
2022-09-21T08:11:01.129Z,1024.79
2022-09-21T08:12:01.158Z,1024.79
2022-09-21T08:13:01.049Z,1024.78
2022-09-21T08:14:01.097Z,1024.81
2022-09-21T08:15:01.256Z,1024.75
2022-09-21T08:16:01.554Z,1024.77
2022-09-21T08:17:02.089Z,1024.78
2022-09-21T08:18:01.205Z,1024.76
2022-09-21T08:19:01.518Z,1024.77
2022-09-21T08:20:01.205Z,1024.76
2022-09-21T08:21:01.103Z,1024.76
2022-09-21T08:22:01.114Z,1024.78
2022-09-21T08:23:01.288Z,1024.8
2022-09-21T08:24:01.137Z,1024.82
2022-09-21T08:25:01.203Z,1024.81
2022-09-21T08:26:01.145Z,1024.84
2022-09-21T08:27:00.419Z,1024.87
2022-09-21T08:27:59.957Z,1024.83
2022-09-21T08:28:59.601Z,1024.84
2022-09-21T08:30:01.245Z,1024.88
2022-09-21T08:31:02.670Z,1024.83
2022-09-21T08:32:02.817Z,1024.87
2022-09-21T08:33:01.120Z,1024.88
2022-09-21T08:34:01.131Z,1024.84
2022-09-21T08:35:01.054Z,1024.89
2022-09-21T08:36:01.028Z,1024.87
2022-09-21T08:37:01.204Z,1024.88
2022-09-21T08:38:01.488Z,1024.86
2022-09-21T08:39:01.336Z,1024.85
2022-09-21T08:40:01.803Z,1024.88
2022-09-21T08:41:02.989Z,1024.86
2022-09-21T08:42:01.039Z,1024.89
2022-09-21T08:43:01.033Z,1024.88
2022-09-21T08:44:01.055Z,1024.9
2022-09-21T08:45:01.056Z,1024.9
2022-09-21T08:46:01.431Z,1024.88
2022-09-21T08:47:01.604Z,1024.93
2022-09-21T08:48:01.568Z,1024.88
2022-09-21T08:49:01.247Z,1024.91
2022-09-21T08:50:02.416Z,1024.9
2022-09-21T08:51:01.087Z,1024.94
2022-09-21T08:52:01.102Z,1024.9
2022-09-21T08:53:01.104Z,1024.92
2022-09-21T08:54:01.551Z,1024.96
2022-09-21T08:55:01.059Z,1024.97
2022-09-21T08:56:01.123Z,1024.98
2022-09-21T08:57:05.450Z,1025
2022-09-21T08:58:01.145Z,1025.03
2022-09-21T08:59:01.152Z,1025.01
2022-09-21T09:00:01.765Z,1025
2022-09-21T09:01:06.751Z,1025.01
2022-09-21T09:02:01.851Z,1025
2022-09-21T09:03:01.192Z,1025.02
2022-09-21T09:04:04.339Z,1025.01
2022-09-21T09:05:01.288Z,1025.03
2022-09-21T09:06:01.093Z,1024.98
2022-09-21T09:07:00.674Z,1024.97
2022-09-21T09:08:00.273Z,1024.93
2022-09-21T09:08:59.923Z,1024.95
2022-09-21T09:09:59.507Z,1024.85
2022-09-21T09:11:01.448Z,1024.91
2022-09-21T09:12:01.082Z,1024.96
2022-09-21T09:13:01.534Z,1024.94
2022-09-21T09:14:01.244Z,1024.92
2022-09-21T09:15:00.924Z,1024.9
2022-09-21T09:16:03.322Z,1024.89
2022-09-21T09:17:01.150Z,1024.94
2022-09-21T09:18:01.149Z,1024.94
2022-09-21T09:19:01.877Z,1024.9
2022-09-21T09:20:00.852Z,1024.93
2022-09-21T09:21:05.183Z,1024.94
2022-09-21T09:22:01.499Z,1024.94
2022-09-21T09:23:04.262Z,1024.95
2022-09-21T09:24:01.808Z,1024.94
2022-09-21T09:25:02.566Z,1024.91
2022-09-21T09:26:09.929Z,1024.91
2022-09-21T09:27:01.517Z,1024.89
2022-09-21T09:28:00.610Z,1024.94
2022-09-21T09:29:00.775Z,1024.91
2022-09-21T09:30:03.322Z,1024.9
2022-09-21T09:31:11.240Z,1024.9
2022-09-21T09:32:02.435Z,1024.85
2022-09-21T09:33:01.562Z,1024.85
2022-09-21T09:34:01.140Z,1024.87
2022-09-21T09:35:01.073Z,1024.86
2022-09-21T09:36:15.835Z,1024.85
2022-09-21T09:37:01.493Z,1024.85
2022-09-21T09:38:01.132Z,1024.81
2022-09-21T09:39:00.473Z,1024.84
2022-09-21T09:40:00.168Z,1024.81
2022-09-21T09:40:59.968Z,1024.86
2022-09-21T09:41:59.571Z,1024.83
2022-09-21T09:43:04.511Z,1024.82
2022-09-21T09:44:01.141Z,1024.79
2022-09-21T09:45:01.141Z,1024.8
2022-09-21T09:46:01.162Z,1024.81
2022-09-21T09:47:01.189Z,1024.8
2022-09-21T09:48:01.125Z,1024.8
2022-09-21T09:49:01.060Z,1024.81
2022-09-21T09:50:01.264Z,1024.79
2022-09-21T09:51:01.851Z,1024.8
2022-09-21T09:52:01.287Z,1024.8
2022-09-21T09:53:00.571Z,1024.79
2022-09-21T09:54:00.578Z,1024.76
2022-09-21T09:55:00.301Z,1024.74
2022-09-21T09:55:59.994Z,1024.75
2022-09-21T09:56:59.658Z,1024.74
2022-09-21T09:58:01.318Z,1024.71
2022-09-21T09:59:01.186Z,1024.7
2022-09-21T10:00:00.930Z,1024.76
2022-09-21T10:01:01.151Z,1024.79
2022-09-21T10:02:01.275Z,1024.72
2022-09-21T10:03:02.583Z,1024.74
2022-09-21T10:04:04.946Z,1024.75
2022-09-21T10:05:01.134Z,1024.77
2022-09-21T10:06:01.060Z,1024.75
2022-09-21T10:07:01.195Z,1024.73
2022-09-21T10:08:01.078Z,1024.77
2022-09-21T10:09:01.084Z,1024.74
2022-09-21T10:10:01.088Z,1024.75
2022-09-21T10:11:01.132Z,1024.79
2022-09-21T10:12:01.536Z,1024.8
2022-09-21T10:13:01.108Z,1024.75
2022-09-21T10:14:01.335Z,1024.76
2022-09-21T10:15:01.122Z,1024.74
2022-09-21T10:16:01.195Z,1024.71
2022-09-21T10:17:01.076Z,1024.67
2022-09-21T10:18:01.161Z,1024.7
2022-09-21T10:19:01.166Z,1024.65
2022-09-21T10:20:00.842Z,1024.62
2022-09-21T10:21:01.079Z,1024.68
2022-09-21T10:22:01.182Z,1024.66
2022-09-21T10:23:01.513Z,1024.67
2022-09-21T10:24:01.080Z,1024.66
2022-09-21T10:25:01.055Z,1024.68
2022-09-21T10:26:01.111Z,1024.65
2022-09-21T10:27:01.099Z,1024.61
2022-09-21T10:28:01.107Z,1024.67
2022-09-21T10:29:01.196Z,1024.7
2022-09-21T10:30:01.433Z,1024.66
2022-09-21T10:31:01.488Z,1024.67
2022-09-21T10:32:01.321Z,1024.64
2022-09-21T10:33:01.333Z,1024.7
2022-09-21T10:34:01.980Z,1024.63
2022-09-21T10:35:02.689Z,1024.62
2022-09-21T10:36:01.059Z,1024.6
2022-09-21T10:37:01.060Z,1024.65
2022-09-21T10:38:01.069Z,1024.62
2022-09-21T10:39:01.305Z,1024.62
2022-09-21T10:40:00.861Z,1024.53
2022-09-21T10:41:01.114Z,1024.53
2022-09-21T10:42:01.091Z,1024.56
2022-09-21T10:43:01.544Z,1024.56
2022-09-21T10:44:01.162Z,1024.53
2022-09-21T10:45:01.110Z,1024.57
2022-09-21T10:46:01.166Z,1024.55
2022-09-21T10:47:01.131Z,1024.51
2022-09-21T10:48:01.143Z,1024.5
2022-09-21T10:49:01.140Z,1024.52
2022-09-21T10:50:01.268Z,1024.48
2022-09-21T10:51:01.166Z,1024.5
2022-09-21T10:52:01.449Z,1024.51
2022-09-21T10:53:01.058Z,1024.53
2022-09-21T10:54:01.772Z,1024.5
2022-09-21T10:55:01.078Z,1024.49
2022-09-21T10:56:17.589Z,1024.47
2022-09-21T10:57:01.329Z,1024.46
2022-09-21T10:58:01.105Z,1024.53
2022-09-21T10:59:01.047Z,1024.49
2022-09-21T11:00:01.129Z,1024.44
2022-09-21T11:01:00.907Z,1024.51
2022-09-21T11:02:02.022Z,1024.49
2022-09-21T11:03:01.280Z,1024.45
2022-09-21T11:04:01.131Z,1024.49
2022-09-21T11:05:01.170Z,1024.42
2022-09-21T11:06:00.528Z,1024.39
2022-09-21T11:07:05.551Z,1024.41
2022-09-21T11:08:01.193Z,1024.4
2022-09-21T11:09:01.183Z,1024.41
2022-09-21T11:10:01.298Z,1024.41
2022-09-21T11:11:01.227Z,1024.38
2022-09-21T11:12:06.831Z,1024.41
2022-09-21T11:13:01.113Z,1024.45
2022-09-21T11:14:01.174Z,1024.45
2022-09-21T11:15:01.104Z,1024.47
2022-09-21T11:16:01.204Z,1024.47
2022-09-21T11:17:09.436Z,1024.45
2022-09-21T11:18:01.662Z,1024.46
2022-09-21T11:19:01.218Z,1024.44
2022-09-21T11:20:01.232Z,1024.45
2022-09-21T11:21:00.869Z,1024.45
2022-09-21T11:22:10.896Z,1024.44
2022-09-21T11:23:02.125Z,1024.4
2022-09-21T11:24:01.061Z,1024.4
2022-09-21T11:25:01.104Z,1024.4
2022-09-21T11:26:01.085Z,1024.39
2022-09-21T11:27:14.200Z,1024.45
2022-09-21T11:28:01.091Z,1024.45
2022-09-21T11:29:01.090Z,1024.42
2022-09-21T11:30:01.100Z,1024.41
2022-09-21T11:31:01.157Z,1024.41
2022-09-21T11:32:16.365Z,1024.46
2022-09-21T11:33:02.023Z,1024.45
2022-09-21T11:34:01.119Z,1024.45
2022-09-21T11:35:00.728Z,1024.41
2022-09-21T11:36:00.421Z,1024.44
2022-09-21T11:37:00.043Z,1024.41
2022-09-21T11:37:59.652Z,1024.38
2022-09-21T11:39:01.974Z,1024.42
2022-09-21T11:40:01.458Z,1024.36
2022-09-21T11:41:01.291Z,1024.35
2022-09-21T11:42:01.167Z,1024.39
2022-09-21T11:43:01.406Z,1024.36
2022-09-21T11:44:02.986Z,1024.35
2022-09-21T11:45:01.121Z,1024.39
2022-09-21T11:46:01.163Z,1024.34
2022-09-21T11:47:01.172Z,1024.35
2022-09-21T11:48:01.118Z,1024.33
2022-09-21T11:49:01.120Z,1024.34
2022-09-21T11:50:19.496Z,1024.34
2022-09-21T11:51:00.873Z,1024.3
2022-09-21T11:52:00.523Z,1024.34
2022-09-21T11:53:00.321Z,1024.33
2022-09-21T11:54:00.023Z,1024.3
2022-09-21T11:54:59.722Z,1024.33
2022-09-21T11:56:02.089Z,1024.32
2022-09-21T11:57:02.084Z,1024.31
2022-09-21T11:58:01.087Z,1024.28
2022-09-21T11:59:01.091Z,1024.26
2022-09-21T12:00:01.101Z,1024.25
2022-09-21T12:01:00.908Z,1024.3
2022-09-21T12:02:01.145Z,1024.31
2022-09-21T12:03:00.695Z,1024.29
2022-09-21T12:04:00.417Z,1024.25
2022-09-21T12:05:00.199Z,1024.27
2022-09-21T12:05:59.927Z,1024.27
2022-09-21T12:06:59.586Z,1024.26
2022-09-21T12:08:01.222Z,1024.3
2022-09-21T12:09:01.048Z,1024.25
2022-09-21T12:10:01.151Z,1024.23
2022-09-21T12:11:01.081Z,1024.24
2022-09-21T12:12:01.070Z,1024.2